Time;durP1;ratioP1;P1;durP2;ratioP2;P2;SDS_P1;SDS_P2;PMS_P1;PMS_P2;Temp;Humidity;BMP_temperature;BMP_pressure;BME280_temperature;BME280_humidity;BME280_pressure;Samples;Min_cycle;Max_cycle;Signal;HPM_P1;HPM_P2
2024/01/05 00:01:52;;;;;;;17.57;5.00;;;8.30;99.90;;;;;;4990839;28;20033;-82
2024/01/05 00:04:18;;;;;;;19.83;5.43;;;8.30;99.90;;;;;;4974956;28;20023;-82
2024/01/05 00:06:44;;;;;;;23.27;5.97;;;8.30;99.90;;;;;;4974321;28;20026;-82
2024/01/05 00:09:09;;;;;;;15.07;4.93;;;8.20;99.90;;;;;;4956711;28;20027;-83
2024/01/05 00:11:35;;;;;;;17.17;5.27;;;8.30;99.90;;;;;;4973165;28;20034;-83
2024/01/05 00:14:02;;;;;;;16.10;5.10;;;8.30;99.90;;;;;;4974298;28;20038;-82
2024/01/05 00:16:27;;;;;;;18.43;5.33;;;8.30;99.90;;;;;;4974830;28;20015;-83
2024/01/05 00:18:53;;;;;;;17.90;6.73;;;8.20;99.90;;;;;;4973490;28;20376;-82
2024/01/05 00:21:26;;;;;;;25.60;6.17;;;8.20;99.90;;;;;;4974247;28;20061;-81
2024/01/05 00:23:53;;;;;;;15.02;4.88;;;8.20;99.90;;;;;;4957406;28;20415;-83
2024/01/05 00:26:19;;;;;;;16.07;5.27;;;8.20;99.90;;;;;;4974390;28;20391;-82
2024/01/05 00:28:46;;;;;;;22.67;5.90;;;8.20;99.90;;;;;;4974531;28;20027;-82
2024/01/05 00:31:16;;;;;;;18.37;5.97;;;8.20;99.90;;;;;;4956384;28;20078;-81
2024/01/05 00:33:42;;;;;;;14.73;5.90;;;8.20;99.90;;;;;;4957029;28;20426;-81
2024/01/05 00:36:09;;;;;;;17.77;6.47;;;8.20;99.90;;;;;;4956336;28;20110;-81
2024/01/05 00:38:35;;;;;;;15.50;5.17;;;8.20;99.90;;;;;;4974174;28;20027;-81
2024/01/05 00:41:02;;;;;;;19.97;5.37;;;8.20;99.90;;;;;;4974172;28;20138;-81
2024/01/05 00:43:27;;;;;;;18.70;6.10;;;8.30;99.90;;;;;;4974474;28;20027;-82
2024/01/05 00:45:53;;;;;;;20.63;5.50;;;8.30;99.90;;;;;;4974209;28;20035;-81
2024/01/05 00:48:21;;;;;;;19.67;6.13;;;8.20;99.90;;;;;;4974031;28;20566;-81
2024/01/05 00:50:46;;;;;;;15.60;5.23;;;8.30;99.90;;;;;;4974114;28;20039;-80
2024/01/05 00:53:12;;;;;;;14.23;5.90;;;8.30;99.90;;;;;;4974036;28;20038;-81
2024/01/05 00:55:38;;;;;;;15.37;5.83;;;8.30;99.90;;;;;;4956764;28;20676;-81
2024/01/05 00:58:04;;;;;;;18.27;5.70;;;8.30;99.90;;;;;;4974342;28;20085;-82
2024/01/05 01:00:30;;;;;;;16.47;5.40;;;8.30;99.90;;;;;;4972959;28;20030;-81
2024/01/05 01:02:55;;;;;;;15.87;5.57;;;8.30;99.90;;;;;;4956928;28;20027;-81
2024/01/05 01:05:21;;;;;;;18.27;5.60;;;8.30;99.90;;;;;;4972680;28;20102;-81
2024/01/05 01:07:47;;;;;;;15.13;6.33;;;8.30;99.90;;;;;;4972532;28;20487;-81
2024/01/05 01:10:13;;;;;;;18.17;6.37;;;8.30;99.90;;;;;;4974075;28;20106;-81
2024/01/05 01:12:39;;;;;;;17.57;5.93;;;8.30;99.90;;;;;;4973901;28;20434;-81
2024/01/05 01:15:05;;;;;;;14.63;5.40;;;8.30;99.90;;;;;;4974034;28;20023;-81
2024/01/05 01:17:31;;;;;;;16.13;5.60;;;8.30;99.90;;;;;;4974046;28;20105;-81
2024/01/05 01:19:57;;;;;;;18.70;5.37;;;8.30;99.90;;;;;;4973761;28;20426;-80
2024/01/05 01:22:22;;;;;;;15.67;5.73;;;8.20;99.90;;;;;;4956526;28;20023;-81
2024/01/05 01:24:48;;;;;;;24.93;6.47;;;8.20;99.90;;;;;;4973886;28;20033;-81
2024/01/05 01:27:14;;;;;;;15.33;5.17;;;8.20;99.90;;;;;;4972774;28;20058;-81
2024/01/05 01:29:40;;;;;;;14.47;5.07;;;8.20;99.90;;;;;;4972962;28;20471;-81
2024/01/05 01:32:06;;;;;;;13.10;5.03;;;8.10;99.90;;;;;;4973839;28;20027;-81
2024/01/05 01:34:32;;;;;;;15.30;5.17;;;8.10;99.90;;;;;;4973077;28;20023;-81
2024/01/05 01:36:57;;;;;;;16.83;6.27;;;8.10;99.90;;;;;;4973833;28;20054;-81
2024/01/05 01:39:23;;;;;;;19.13;6.50;;;8.00;99.90;;;;;;4973950;28;20510;-81
2024/01/05 01:41:49;;;;;;;16.73;5.53;;;8.00;99.90;;;;;;4975766;28;20635;-81
2024/01/05 01:44:15;;;;;;;13.57;6.03;;;8.00;99.90;;;;;;4977306;28;20022;-82
2024/01/05 01:46:41;;;;;;;17.30;5.83;;;8.00;99.90;;;;;;4976078;28;20364;-81
2024/01/05 01:49:07;;;;;;;14.87;6.07;;;7.90;99.90;;;;;;4976797;28;20530;-81
2024/01/05 01:51:34;;;;;;;17.43;5.87;;;7.90;99.90;;;;;;4976962;28;20027;-82
2024/01/05 01:54:00;;;;;;;22.47;6.80;;;7.90;99.90;;;;;;4977355;28;20030;-82
2024/01/05 01:56:26;;;;;;;17.40;6.23;;;8.00;99.90;;;;;;4977017;28;20034;-82
2024/01/05 01:58:52;;;;;;;22.80;5.77;;;8.00;99.90;;;;;;4975949;28;20022;-82
2024/01/05 02:01:18;;;;;;;13.37;4.80;;;8.00;99.90;;;;;;4977462;28;20022;-82
2024/01/05 02:03:43;;;;;;;18.93;5.73;;;8.00;99.90;;;;;;4976587;28;20034;-81
2024/01/05 02:06:09;;;;;;;14.30;4.40;;;8.00;99.90;;;;;;4975599;28;20542;-81
2024/01/05 02:08:36;;;;;;;11.17;4.37;;;8.10;99.90;;;;;;4976955;28;20027;-82
2024/01/05 02:11:02;;;;;;;14.33;4.10;;;8.10;99.90;;;;;;4991839;28;20058;-82
2024/01/05 02:13:29;;;;;;;13.60;4.10;;;8.10;99.90;;;;;;4976584;28;20054;-82
2024/01/05 02:15:55;;;;;;;15.23;4.00;;;8.10;99.90;;;;;;4976720;28;20109;-83
2024/01/05 02:18:20;;;;;;;17.67;5.37;;;8.20;99.90;;;;;;4976401;28;20105;-83
2024/01/05 02:20:46;;;;;;;15.93;4.37;;;8.20;99.90;;;;;;4976621;28;20506;-82
2024/01/05 02:23:27;;;;;;;10.40;2.93;;;8.20;99.90;;;;;;4976677;28;20019;-83
2024/01/05 02:25:55;;;;;;;15.07;3.70;;;8.20;99.90;;;;;;4976246;28;20499;-82
2024/01/05 02:28:21;;;;;;;14.03;2.90;;;8.30;99.90;;;;;;4976481;28;20023;-82
2024/01/05 02:30:47;;;;;;;13.57;3.30;;;8.30;99.90;;;;;;4976338;28;20093;-81
2024/01/05 02:33:13;;;;;;;12.47;2.87;;;8.30;99.90;;;;;;4958949;28;20023;-81
2024/01/05 02:35:39;;;;;;;11.10;2.90;;;8.30;99.90;;;;;;4975572;28;20118;-81
2024/01/05 02:38:05;;;;;;;12.10;2.70;;;8.40;99.90;;;;;;4976166;28;20038;-83
2024/01/05 02:40:31;;;;;;;14.80;3.33;;;8.40;99.90;;;;;;4976419;28;20134;-82
2024/01/05 02:42:57;;;;;;;13.33;2.77;;;8.40;99.90;;;;;;4974948;28;20479;-82
2024/01/05 02:45:23;;;;;;;11.60;3.20;;;8.40;99.90;;;;;;4976206;28;20023;-81
2024/01/05 02:47:50;;;;;;;10.50;2.50;;;8.50;99.90;;;;;;4975958;28;20027;-82
2024/01/05 02:50:16;;;;;;;10.23;2.10;;;8.50;99.90;;;;;;4975941;28;20117;-83
2024/01/05 02:52:42;;;;;;;14.33;3.87;;;8.50;99.90;;;;;;4975046;28;20117;-82
2024/01/05 02:55:10;;;;;;;11.13;2.20;;;8.50;99.90;;;;;;4976384;28;20484;-81
2024/01/05 02:57:35;;;;;;;11.17;3.03;;;8.50;99.90;;;;;;4974755;28;20049;-83
2024/01/05 03:00:03;;;;;;;15.80;2.10;;;8.60;99.90;;;;;;4975620;28;20023;-83
2024/01/05 03:02:29;;;;;;;13.87;2.67;;;8.60;99.90;;;;;;4975935;28;20050;-82
2024/01/05 03:04:54;;;;;;;10.07;2.40;;;8.60;99.90;;;;;;4958327;28;20427;-82
2024/01/05 03:07:20;;;;;;;16.37;3.37;;;8.60;99.90;;;;;;4975961;28;20420;-82
2024/01/05 03:09:45;;;;;;;14.00;1.93;;;8.60;99.90;;;;;;4975859;28;20495;-82
2024/01/05 03:12:11;;;;;;;14.13;2.33;;;8.60;99.90;;;;;;4975303;28;20026;-80
2024/01/05 03:14:37;;;;;;;14.40;2.00;;;8.60;99.90;;;;;;4975314;28;20029;-82
2024/01/05 03:17:04;;;;;;;15.83;2.20;;;8.70;99.90;;;;;;4975874;28;20054;-83
2024/01/05 03:19:30;;;;;;;11.03;2.30;;;8.70;99.90;;;;;;4958217;28;20026;-83
2024/01/05 03:21:55;;;;;;;9.20;2.17;;;8.70;99.90;;;;;;4975482;28;20093;-83
2024/01/05 03:24:22;;;;;;;15.60;2.10;;;8.70;99.90;;;;;;4974091;28;20058;-82
2024/01/05 03:26:48;;;;;;;9.83;2.20;;;8.70;99.90;;;;;;4975555;28;20023;-83
2024/01/05 03:29:14;;;;;;;8.33;2.13;;;8.70;99.90;;;;;;4975233;28;20033;-82
2024/01/05 03:31:39;;;;;;;10.80;2.00;;;8.70;99.90;;;;;;4957858;28;20169;-82
2024/01/05 03:34:05;;;;;;;10.63;1.87;;;8.70;99.90;;;;;;4974209;28;20117;-82
2024/01/05 03:36:30;;;;;;;15.83;2.93;;;8.70;99.90;;;;;;4957254;28;20047;-83
2024/01/05 03:38:56;;;;;;;8.30;2.23;;;8.80;99.90;;;;;;4975686;28;20023;-82
2024/01/05 03:41:22;;;;;;;12.07;2.33;;;8.80;99.90;;;;;;4975291;28;20061;-81
2024/01/05 03:43:48;;;;;;;14.23;2.70;;;8.80;99.90;;;;;;4974955;28;20446;-83
2024/01/05 03:46:14;;;;;;;17.60;3.03;;;8.80;99.90;;;;;;4989730;28;20097;-82
2024/01/05 03:48:39;;;;;;;16.67;2.60;;;8.80;99.90;;;;;;4974868;28;20049;-82
2024/01/05 03:51:05;;;;;;;12.10;1.77;;;8.80;99.90;;;;;;4975102;28;20066;-82
2024/01/05 03:53:31;;;;;;;11.47;2.80;;;8.80;99.90;;;;;;4975015;28;20023;-83
2024/01/05 03:56:00;;;;;;;9.57;1.80;;;8.80;99.90;;;;;;4973931;28;20085;-82
2024/01/05 03:58:28;;;;;;;11.40;2.10;;;8.80;99.90;;;;;;4973440;28;20103;-82
2024/01/05 04:00:54;;;;;;;16.47;2.60;;;8.80;99.90;;;;;;4974818;28;20101;-81
2024/01/05 04:03:19;;;;;;;16.50;3.20;;;8.80;99.90;;;;;;4974822;28;20023;-82
2024/01/05 04:05:45;;;;;;;15.80;2.67;;;8.80;99.90;;;;;;4973258;28;20019;-82
2024/01/05 04:08:11;;;;;;;11.00;2.40;;;8.80;99.90;;;;;;4957382;28;20023;-82
2024/01/05 04:10:38;;;;;;;9.07;2.20;;;8.80;99.90;;;;;;4973370;28;20097;-82
2024/01/05 04:13:04;;;;;;;10.57;2.63;;;8.80;99.90;;;;;;4974393;28;20133;-82
2024/01/05 04:15:35;;;;;;;14.13;2.60;;;8.80;99.90;;;;;;4974739;28;20392;-82
2024/01/05 04:18:00;;;;;;;5.33;1.80;;;8.80;99.90;;;;;;4974216;28;20018;-82
2024/01/05 04:20:26;;;;;;;11.67;1.73;;;8.80;99.90;;;;;;4974580;28;20510;-83
2024/01/05 04:22:52;;;;;;;13.27;1.90;;;8.80;99.90;;;;;;4957305;28;20456;-83
2024/01/05 04:25:17;;;;;;;12.27;2.00;;;8.80;99.90;;;;;;4974495;28;20034;-82
2024/01/05 04:27:43;;;;;;;12.53;1.90;;;8.80;99.90;;;;;;4956811;28;20027;-82
2024/01/05 04:30:09;;;;;;;13.80;1.90;;;8.80;99.90;;;;;;4974058;28;20091;-82
2024/01/05 04:32:36;;;;;;;13.93;2.30;;;8.80;99.90;;;;;;4972943;28;20479;-82
2024/01/05 04:35:01;;;;;;;8.50;1.47;;;8.80;99.90;;;;;;4956837;28;20052;-82
2024/01/05 04:37:27;;;;;;;9.17;1.73;;;8.80;99.90;;;;;;4973973;28;20499;-82
2024/01/05 04:39:53;;;;;;;13.17;2.20;;;8.80;99.90;;;;;;4973213;28;20030;-82
2024/01/05 04:42:18;;;;;;;9.30;1.40;;;8.80;99.90;;;;;;4972551;28;20026;-82
2024/01/05 04:44:44;;;;;;;8.50;1.50;;;8.80;99.90;;;;;;4972863;28;20015;-82
2024/01/05 04:47:09;;;;;;;7.57;1.40;;;8.80;99.90;;;;;;4974386;28;20029;-84
2024/01/05 04:49:35;;;;;;;9.60;2.07;;;8.90;99.90;;;;;;4956811;28;20054;-83
2024/01/05 04:52:01;;;;;;;10.27;1.80;;;8.90;99.90;;;;;;4956698;28;20039;-82
2024/01/05 04:54:26;;;;;;;8.60;1.57;;;8.90;99.90;;;;;;4974598;28;20050;-82
2024/01/05 04:56:52;;;;;;;9.33;1.60;;;8.90;99.90;;;;;;4973904;28;20027;-82
2024/01/05 04:59:22;;;;;;;9.37;1.70;;;8.80;99.90;;;;;;4973958;28;20034;-82
2024/01/05 05:01:48;;;;;;;8.80;1.60;;;8.90;99.90;;;;;;4973859;28;20476;-82
2024/01/05 05:04:14;;;;;;;8.00;1.20;;;8.90;99.90;;;;;;4974298;28;20030;-82
2024/01/05 05:06:40;;;;;;;9.43;1.43;;;8.90;99.90;;;;;;4974234;28;20023;-82
2024/01/05 05:09:06;;;;;;;12.87;2.00;;;8.90;99.90;;;;;;4973896;28;20023;-82
2024/01/05 05:11:31;;;;;;;7.70;1.40;;;8.90;99.90;;;;;;4972675;28;20026;-82
2024/01/05 05:13:57;;;;;;;9.37;1.40;;;8.90;99.90;;;;;;4972509;28;20019;-83
2024/01/05 05:16:23;;;;;;;12.37;1.40;;;8.90;99.90;;;;;;4958018;28;20062;-82
2024/01/05 05:18:49;;;;;;;8.57;1.77;;;8.90;99.90;;;;;;4978053;28;20074;-84
2024/01/05 05:21:15;;;;;;;10.83;1.40;;;8.90;99.90;;;;;;4961957;28;20438;-84
2024/01/05 05:23:41;;;;;;;10.77;1.30;;;8.90;99.90;;;;;;4984555;28;20050;-83
2024/01/05 05:26:07;;;;;;;11.17;1.70;;;8.90;99.90;;;;;;4996708;28;20030;-82
2024/01/05 05:28:33;;;;;;;18.63;2.40;;;8.90;99.90;;;;;;4997093;28;20077;-82
2024/01/05 05:30:59;;;;;;;9.40;1.60;;;8.90;99.90;;;;;;4992652;28;20026;-83
2024/01/05 05:33:25;;;;;;;11.13;1.47;;;8.90;99.90;;;;;;4998941;28;20092;-82
2024/01/05 05:35:50;;;;;;;6.27;1.30;;;8.90;99.90;;;;;;4998682;28;20054;-82
2024/01/05 05:38:16;;;;;;;11.30;1.53;;;8.90;99.90;;;;;;5016643;28;20022;-82
2024/01/05 05:40:42;;;;;;;9.53;1.27;;;8.90;99.90;;;;;;4998491;28;20112;-81
2024/01/05 05:43:07;;;;;;;12.00;1.80;;;8.90;99.90;;;;;;4998877;28;20493;-82
2024/01/05 05:45:33;;;;;;;7.43;1.33;;;8.90;99.90;;;;;;5016296;28;20030;-83
2024/01/05 05:47:59;;;;;;;7.87;0.93;;;8.90;99.90;;;;;;5016403;28;20394;-82
2024/01/05 05:50:25;;;;;;;12.07;1.43;;;9.00;99.90;;;;;;4998631;28;20108;-82
2024/01/05 05:52:51;;;;;;;8.73;1.13;;;9.00;99.90;;;;;;5016451;28;20426;-82
2024/01/05 05:55:17;;;;;;;7.53;1.03;;;8.90;99.90;;;;;;4998534;28;20037;-82
2024/01/05 05:57:43;;;;;;;8.67;1.63;;;9.00;99.90;;;;;;5016214;28;20030;-82
2024/01/05 06:00:10;;;;;;;5.03;0.73;;;9.00;99.90;;;;;;5008069;28;20082;-82
2024/01/05 06:02:37;;;;;;;6.80;1.27;;;8.90;99.90;;;;;;4962769;28;20447;-83
2024/01/05 06:05:04;;;;;;;5.57;1.40;;;8.90;99.90;;;;;;4976787;28;20031;-83
2024/01/05 06:07:30;;;;;;;5.80;1.20;;;8.90;99.90;;;;;;4975129;28;20027;-81
2024/01/05 06:09:56;;;;;;;8.67;1.60;;;8.90;99.90;;;;;;4976435;28;20085;-82
2024/01/05 06:12:22;;;;;;;6.53;1.20;;;8.90;99.90;;;;;;4959545;28;20069;-82
2024/01/05 06:14:48;;;;;;;7.47;1.47;;;8.90;99.90;;;;;;4976879;28;20492;-81
2024/01/05 06:17:13;;;;;;;10.60;1.10;;;8.90;99.90;;;;;;4977087;28;20078;-83
2024/01/05 06:19:39;;;;;;;9.33;1.63;;;8.90;99.90;;;;;;4959340;28;20038;-83
2024/01/05 06:22:05;;;;;;;5.30;0.80;;;8.90;99.90;;;;;;4976613;28;20424;-82
2024/01/05 06:24:30;;;;;;;8.83;1.10;;;8.90;99.90;;;;;;4976534;28;20220;-82
2024/01/05 06:26:56;;;;;;;10.00;1.90;;;8.90;99.90;;;;;;4976176;28;20530;-82
2024/01/05 06:29:22;;;;;;;10.67;1.83;;;8.90;99.90;;;;;;4974709;28;20062;-83
2024/01/05 06:31:47;;;;;;;6.53;0.80;;;8.90;99.90;;;;;;4958812;28;20053;-83
2024/01/05 06:34:13;;;;;;;6.67;1.00;;;8.90;99.90;;;;;;4976884;28;20097;-82
2024/01/05 06:36:39;;;;;;;5.50;1.20;;;8.90;99.90;;;;;;4959033;28;20063;-83
2024/01/05 06:39:05;;;;;;;8.67;1.00;;;8.90;99.90;;;;;;4958948;28;20031;-82
2024/01/05 06:41:31;;;;;;;7.80;0.90;;;8.90;99.90;;;;;;4976468;28;20383;-82
2024/01/05 06:43:57;;;;;;;9.20;1.50;;;8.90;99.90;;;;;;4958995;28;20022;-82
2024/01/05 06:46:23;;;;;;;6.37;0.93;;;8.90;99.90;;;;;;4976097;28;20026;-83
2024/01/05 06:48:49;;;;;;;9.87;0.90;;;8.90;99.90;;;;;;4976194;28;20093;-81
2024/01/05 06:51:15;;;;;;;6.90;1.20;;;8.90;99.90;;;;;;4976019;28;20062;-82
2024/01/05 06:53:40;;;;;;;4.67;0.87;;;8.90;99.90;;;;;;4975699;28;20166;-82
2024/01/05 06:56:08;;;;;;;8.13;1.30;;;8.90;99.90;;;;;;4975972;28;20031;-82
2024/01/05 06:58:34;;;;;;;11.13;1.30;;;8.90;99.90;;;;;;4958643;28;20054;-83
2024/01/05 07:01:01;;;;;;;9.47;0.93;;;8.90;99.90;;;;;;4975867;28;20065;-82
2024/01/05 07:03:27;;;;;;;5.07;0.90;;;8.90;99.90;;;;;;4976016;28;20480;-82
2024/01/05 07:05:52;;;;;;;5.20;0.80;;;8.90;99.90;;;;;;4957941;28;20033;-81
2024/01/05 07:08:18;;;;;;;7.10;1.00;;;8.90;99.90;;;;;;4975869;28;20106;-83
2024/01/05 07:10:44;;;;;;;4.07;0.90;;;8.90;99.90;;;;;;4975817;28;20086;-83
2024/01/05 07:13:10;;;;;;;7.37;1.00;;;8.90;99.90;;;;;;4975852;28;20099;-84
2024/01/05 07:15:35;;;;;;;5.37;0.80;;;8.90;99.90;;;;;;4974239;28;20027;-86
2024/01/05 07:18:01;;;;;;;7.53;0.93;;;8.90;99.90;;;;;;4975894;28;20026;-82
2024/01/05 07:20:27;;;;;;;5.10;1.07;;;8.90;99.90;;;;;;4975674;28;20471;-82
2024/01/05 07:22:53;;;;;;;6.03;0.97;;;9.00;99.90;;;;;;4958176;28;20031;-82
2024/01/05 07:25:18;;;;;;;4.27;0.70;;;9.00;99.90;;;;;;4975401;28;20026;-82
2024/01/05 07:27:44;;;;;;;3.13;0.77;;;9.00;99.90;;;;;;4975178;28;20058;-82
2024/01/05 07:30:10;;;;;;;3.33;0.50;;;9.00;99.90;;;;;;4975229;28;20101;-82
2024/01/05 07:32:37;;;;;;;4.40;0.80;;;9.00;99.90;;;;;;4957795;28;20038;-82
2024/01/05 07:35:04;;;;;;;6.10;0.87;;;9.00;99.90;;;;;;4995843;28;20064;-82
2024/01/05 07:37:30;;;;;;;2.40;0.50;;;9.00;99.90;;;;;;4967423;28;20061;-82
2024/01/05 07:39:56;;;;;;;5.40;0.60;;;9.00;99.90;;;;;;4965146;28;20386;-83
2024/01/05 07:42:22;;;;;;;5.60;0.70;;;9.00;99.90;;;;;;4982645;28;20026;-82
2024/01/05 07:44:48;;;;;;;5.73;0.97;;;9.00;99.90;;;;;;4975155;28;20595;-83
2024/01/05 07:47:13;;;;;;;3.27;0.60;;;9.00;99.90;;;;;;4980234;28;20022;-82
2024/01/05 07:49:40;;;;;;;4.30;0.60;;;9.10;99.90;;;;;;4976438;28;20022;-83
2024/01/05 07:52:06;;;;;;;4.63;0.70;;;9.00;99.90;;;;;;4993818;28;20069;-82
2024/01/05 07:54:32;;;;;;;4.00;0.70;;;9.10;99.90;;;;;;4993500;28;20026;-84
2024/01/05 07:56:57;;;;;;;6.20;0.50;;;9.00;99.90;;;;;;4993952;28;20033;-82
2024/01/05 07:59:23;;;;;;;2.20;0.40;;;9.00;99.90;;;;;;4976671;28;20018;-82
2024/01/05 08:01:52;;;;;;;3.13;0.40;;;9.00;99.90;;;;;;4991364;28;20026;-82
2024/01/05 08:04:18;;;;;;;2.00;0.30;;;9.00;99.90;;;;;;4993853;28;20101;-82
2024/01/05 08:06:47;;;;;;;1.73;0.30;;;9.00;99.90;;;;;;4993487;28;20030;-81
2024/01/05 08:09:12;;;;;;;3.10;0.20;;;8.90;99.90;;;;;;4991668;28;20022;-83
2024/01/05 08:11:38;;;;;;;1.90;0.40;;;8.90;99.90;;;;;;4994324;28;20117;-84
2024/01/05 08:14:07;;;;;;;2.40;0.20;;;8.80;99.90;;;;;;4993958;28;20027;-82
2024/01/05 08:16:33;;;;;;;0.67;0.20;;;8.80;99.90;;;;;;4975644;28;20050;-82
2024/01/05 08:18:59;;;;;;;1.57;0.30;;;8.80;99.90;;;;;;4993316;28;20022;-82
2024/01/05 08:21:25;;;;;;;2.03;0.20;;;8.80;99.90;;;;;;4976236;28;20037;-83
2024/01/05 08:23:51;;;;;;;0.27;0.10;;;8.80;99.90;;;;;;4993630;28;20471;-85
2024/01/05 08:26:18;;;;;;;0.70;0.20;;;8.70;99.90;;;;;;4993466;28;20069;-82
2024/01/05 08:28:43;;;;;;;2.30;0.30;;;8.70;99.90;;;;;;4976270;28;20014;-84
2024/01/05 08:31:09;;;;;;;0.50;0.20;;;8.70;99.90;;;;;;4993259;28;20077;-82
2024/01/05 08:33:35;;;;;;;1.07;0.20;;;8.70;99.90;;;;;;4992970;28;20422;-82
2024/01/05 08:36:01;;;;;;;0.50;0.10;;;8.60;99.90;;;;;;4975956;28;20351;-82
2024/01/05 08:38:27;;;;;;;1.40;0.20;;;8.70;99.90;;;;;;4976522;28;20449;-82
2024/01/05 08:40:52;;;;;;;3.23;0.20;;;8.70;99.90;;;;;;4993925;28;20069;-82
2024/01/05 08:43:19;;;;;;;0.60;0.20;;;8.70;99.90;;;;;;4993901;28;20027;-82
2024/01/05 08:45:45;;;;;;;1.90;0.20;;;8.60;99.90;;;;;;4993780;28;20027;-82
2024/01/05 08:48:11;;;;;;;0.90;0.20;;;8.60;99.90;;;;;;4975901;28;20041;-84
2024/01/05 08:50:37;;;;;;;1.33;0.30;;;8.50;99.90;;;;;;4992898;28;20410;-82
2024/01/05 08:53:03;;;;;;;0.50;0.20;;;8.40;99.90;;;;;;4993233;28;20364;-82
2024/01/05 08:55:29;;;;;;;1.30;0.20;;;8.40;99.90;;;;;;4986096;28;20022;-82
2024/01/05 08:57:55;;;;;;;0.67;0.20;;;8.30;99.90;;;;;;4974194;28;20387;-82
2024/01/05 09:00:21;;;;;;;0.83;0.20;;;8.30;99.90;;;;;;4993155;28;20029;-84
2024/01/05 09:02:47;;;;;;;1.47;0.20;;;8.20;99.90;;;;;;4993168;28;20038;-83
2024/01/05 09:05:13;;;;;;;0.70;0.37;;;8.20;99.90;;;;;;4975791;28;20030;-82
2024/01/05 09:07:38;;;;;;;1.70;0.30;;;8.20;99.90;;;;;;4965531;28;20391;-83
2024/01/05 09:10:04;;;;;;;0.60;0.30;;;8.10;99.90;;;;;;4992955;28;20018;-83
2024/01/05 09:12:30;;;;;;;0.90;0.20;;;8.20;99.90;;;;;;4975673;28;20022;-82
2024/01/05 09:14:56;;;;;;;1.40;0.33;;;8.10;99.90;;;;;;4993609;28;20018;-82
2024/01/05 09:17:21;;;;;;;1.70;0.40;;;8.10;99.90;;;;;;4975667;28;20479;-84
2024/01/05 09:19:48;;;;;;;4.37;0.40;;;8.00;99.90;;;;;;4992896;28;20019;-83
2024/01/05 09:22:14;;;;;;;0.90;0.30;;;8.00;99.90;;;;;;4975901;28;20030;-83
2024/01/05 09:24:39;;;;;;;1.83;0.30;;;8.00;99.90;;;;;;4975405;28;20018;-84
2024/01/05 09:27:05;;;;;;;1.57;0.30;;;8.00;99.90;;;;;;4975694;28;20030;-83
2024/01/05 09:29:31;;;;;;;0.90;0.30;;;8.00;99.90;;;;;;4982460;28;20014;-83
2024/01/05 09:31:57;;;;;;;0.87;0.30;;;8.00;99.90;;;;;;4992188;28;20035;-83
2024/01/05 09:34:23;;;;;;;1.23;0.30;;;8.00;99.90;;;;;;4975539;28;20025;-82
2024/01/05 09:36:49;;;;;;;0.60;0.20;;;8.00;99.90;;;;;;4973783;28;20062;-85
2024/01/05 09:39:15;;;;;;;1.07;0.27;;;7.90;99.90;;;;;;4975729;28;20023;-84
2024/01/05 09:41:42;;;;;;;1.53;0.30;;;7.80;99.90;;;;;;4998498;28;20021;-83
2024/01/05 09:44:10;;;;;;;1.57;0.23;;;7.80;99.90;;;;;;5000374;28;20018;-82
2024/01/05 09:46:39;;;;;;;0.53;0.20;;;7.70;99.90;;;;;;4975113;28;20100;-84
2024/01/05 09:49:06;;;;;;;1.73;0.30;;;7.60;99.90;;;;;;4992955;28;20033;-85
2024/01/05 09:51:32;;;;;;;1.87;0.30;;;7.60;99.90;;;;;;4980301;28;20058;-84
2024/01/05 09:53:58;;;;;;;2.20;0.40;;;7.60;99.90;;;;;;4992525;28;20034;-83
2024/01/05 09:56:27;;;;;;;0.63;0.30;;;7.50;99.90;;;;;;4979222;28;20022;-83
2024/01/05 09:58:53;;;;;;;0.90;0.40;;;7.50;99.90;;;;;;4975828;28;20563;-83
2024/01/05 10:01:28;;;;;;;1.07;0.30;;;7.50;99.90;;;;;;5005675;28;20026;-84
2024/01/05 10:03:58;;;;;;;1.03;0.30;;;7.50;99.90;;;;;;4999042;28;20037;-82
2024/01/05 10:06:25;;;;;;;0.40;0.20;;;7.40;99.90;;;;;;4996134;28;20030;-85
2024/01/05 10:08:55;;;;;;;0.90;0.30;;;7.40;99.90;;;;;;4996047;28;20548;-85
2024/01/05 10:11:33;;;;;;;0.43;0.20;;;7.40;99.90;;;;;;4991203;28;20030;-84
2024/01/05 10:14:01;;;;;;;0.73;0.20;;;7.30;99.90;;;;;;5000253;28;20053;-83
2024/01/05 10:16:34;;;;;;;0.83;0.40;;;7.30;99.90;;;;;;4978440;28;20118;-84
2024/01/05 10:19:32;;;;;;;1.83;0.77;;;7.30;99.90;;;;;;4978096;28;20038;-86
2024/01/05 10:22:14;;;;;;;0.60;0.30;;;7.30;99.90;;;;;;4975471;28;20407;-84
2024/01/05 10:24:41;;;;;;;1.80;0.33;;;7.20;99.90;;;;;;4986932;28;20130;-83
2024/01/05 10:27:08;;;;;;;1.27;0.30;;;7.20;99.90;;;;;;4995898;28;20027;-82
2024/01/05 10:29:36;;;;;;;0.60;0.40;;;7.20;99.90;;;;;;4974083;28;20129;-84
2024/01/05 10:32:24;;;;;;;2.10;0.40;;;7.20;99.90;;;;;;4976730;28;20372;-82
2024/01/05 10:34:50;;;;;;;2.27;0.57;;;7.10;99.90;;;;;;4995443;28;20026;-82
2024/01/05 10:37:18;;;;;;;3.00;0.60;;;7.10;99.90;;;;;;4995547;28;20060;-83
2024/01/05 10:39:47;;;;;;;2.60;0.80;;;7.10;99.90;;;;;;4995569;28;20021;-83
2024/01/05 10:42:19;;;;;;;1.10;0.57;;;7.10;99.90;;;;;;4995513;28;20030;-83
2024/01/05 10:44:47;;;;;;;1.90;0.70;;;7.10;99.90;;;;;;4975583;28;20014;-84
2024/01/05 10:47:14;;;;;;;3.43;0.90;;;7.10;99.90;;;;;;4977067;28;20058;-83
2024/01/05 10:49:49;;;;;;;2.17;0.63;;;7.00;99.90;;;;;;4977946;28;20014;-82
2024/01/05 10:52:19;;;;;;;2.00;0.63;;;7.00;99.90;;;;;;4995055;28;20022;-84
2024/01/05 10:54:46;;;;;;;1.57;0.70;;;7.10;99.90;;;;;;4992955;28;20022;-83
2024/01/05 10:57:14;;;;;;;1.40;0.60;;;7.10;99.90;;;;;;4977466;28;20379;-85
2024/01/05 10:59:46;;;;;;;3.27;0.93;;;7.10;99.90;;;;;;4977488;28;20470;-84
2024/01/05 11:02:20;;;;;;;1.97;0.70;;;7.10;99.90;;;;;;4994954;28;20026;-82
2024/01/05 11:04:54;;;;;;;2.58;0.70;;;7.20;99.90;;;;;;4992892;28;20031;-82
2024/01/05 11:07:23;;;;;;;1.38;0.75;;;7.20;99.90;;;;;;4995708;28;20082;-84
2024/01/05 11:10:23;;;;;;;2.97;0.63;;;7.20;99.90;;;;;;4977726;28;20023;-82
2024/01/05 11:13:23;;;;;;;1.50;0.70;;;7.30;99.90;;;;;;4977824;28;20042;-84
2024/01/05 11:16:02;;;;;;;3.57;0.80;;;7.30;99.90;;;;;;4977472;28;20062;-81
2024/01/05 11:18:59;;;;;;;2.80;0.60;;;7.30;99.90;;;;;;4995171;28;20537;-84
2024/01/05 11:21:48;;;;;;;3.10;1.30;;;7.30;99.90;;;;;;4958372;28;20436;-85
2024/01/05 11:24:15;;;;;;;2.20;0.80;;;7.30;99.90;;;;;;4967523;28;20022;-82
2024/01/05 11:26:44;;;;;;;3.80;0.87;;;7.40;99.90;;;;;;4994542;28;20029;-82
2024/01/05 11:29:13;;;;;;;1.70;0.60;;;7.40;99.90;;;;;;4974595;28;20038;-83
2024/01/05 11:31:57;;;;;;;3.10;0.80;;;7.40;99.90;;;;;;4976986;28;20043;-83
2024/01/05 11:34:34;;;;;;;2.22;0.90;;;7.40;99.90;;;;;;4977683;28;20026;-82
2024/01/05 11:37:03;;;;;;;3.00;0.60;;;7.40;99.90;;;;;;4994683;28;20157;-82
2024/01/05 11:39:45;;;;;;;3.33;1.00;;;7.40;99.90;;;;;;4977526;28;20045;-82
2024/01/05 11:42:33;;;;;;;3.03;0.80;;;7.40;99.90;;;;;;4974704;28;20018;-82
2024/01/05 11:45:04;;;;;;;4.03;0.73;;;7.40;99.90;;;;;;4994589;28;20101;-81
2024/01/05 11:47:48;;;;;;;3.13;0.87;;;7.40;99.90;;;;;;4976900;28;20034;-83
2024/01/05 11:50:27;;;;;;;5.70;0.90;;;7.40;99.90;;;;;;4994548;28;20030;-82
2024/01/05 11:53:18;;;;;;;2.30;1.10;;;7.40;99.90;;;;;;4994521;28;20033;-82
2024/01/05 11:55:53;;;;;;;4.10;0.93;;;7.40;99.90;;;;;;4994635;28;20029;-82
2024/01/05 11:58:22;;;;;;;1.43;0.70;;;7.40;99.90;;;;;;4974378;28;20710;-81
2024/01/05 12:00:49;;;;;;;3.37;0.70;;;7.40;99.90;;;;;;4995909;28;20164;-83
2024/01/05 12:03:15;;;;;;;2.50;0.90;;;7.40;99.90;;;;;;4977077;28;20508;-82
2024/01/05 12:05:42;;;;;;;4.40;0.90;;;7.40;99.90;;;;;;4992760;28;20037;-81
2024/01/05 12:08:11;;;;;;;3.63;0.90;;;7.40;99.90;;;;;;4995558;28;20022;-83
2024/01/05 12:10:39;;;;;;;2.93;1.10;;;7.50;99.90;;;;;;4996235;28;20029;-81
2024/01/05 12:13:06;;;;;;;2.67;1.00;;;7.50;99.90;;;;;;5013527;28;20018;-82
2024/01/05 12:15:32;;;;;;;2.53;0.77;;;7.50;99.90;;;;;;4996098;28;20105;-82
2024/01/05 12:18:05;;;;;;;2.57;1.00;;;7.50;99.90;;;;;;5013687;28;20022;-81
2024/01/05 12:20:31;;;;;;;2.17;0.70;;;7.50;99.90;;;;;;4957141;28;20053;-82
2024/01/05 12:22:57;;;;;;;4.17;0.80;;;7.50;99.90;;;;;;4974490;28;20027;-83
2024/01/05 12:25:22;;;;;;;1.70;0.60;;;7.60;99.90;;;;;;4993649;28;20022;-81
2024/01/05 12:27:48;;;;;;;1.40;0.70;;;7.50;99.90;;;;;;5013450;28;20049;-81
2024/01/05 12:30:14;;;;;;;2.77;0.90;;;7.50;99.90;;;;;;4995904;28;20084;-79
2024/01/05 12:32:41;;;;;;;2.93;0.83;;;7.50;99.90;;;;;;5013182;28;20449;-81
2024/01/05 12:35:07;;;;;;;2.73;1.00;;;7.60;99.90;;;;;;5012911;28;20363;-81
2024/01/05 12:37:32;;;;;;;2.97;1.07;;;7.60;99.90;;;;;;4990204;28;20035;-80
2024/01/05 12:40:12;;;;;;;3.07;0.97;;;7.50;99.90;;;;;;4990749;28;20483;-80
2024/01/05 12:42:38;;;;;;;2.50;0.80;;;7.50;99.90;;;;;;4995672;28;20593;-81
2024/01/05 12:45:08;;;;;;;1.80;0.80;;;7.50;99.90;;;;;;5013143;28;20101;-80
2024/01/05 12:47:34;;;;;;;3.73;1.00;;;7.50;99.90;;;;;;4995304;28;20479;-81
2024/01/05 12:50:03;;;;;;;3.03;1.60;;;7.60;99.90;;;;;;4995639;28;20508;-82
2024/01/05 12:52:37;;;;;;;2.10;0.90;;;7.50;99.90;;;;;;5013206;28;20030;-82
2024/01/05 12:55:06;;;;;;;2.60;0.90;;;7.50;99.90;;;;;;4995285;28;20511;-83